Hiddenite, North Carolina
Current Conditions -  °F | °C
As of 6:15 PM on Saturday 25 Oct 2014 (Local Time) from KSVH Reporting Station
Clear Clear  
Wind Chill: 68°   Ceiling: Unl
Heat Index: 68°   Visibility: 10mi
Dew Point: 41°   Wind: 3mph
Humidity: 37%   Direction: 220°SW
Pressure: 29.93"   Gusts: NA
Location:  35.9°N, 81.09°W
Report Text: KSVH 252215Z AUTO 22003KT 10SM CLR 20/05 A2993 RMK AO2 T02020052
Loading
Personal Weather Stations






























Interactive Weather Map
Tropical Storm Tracking
New forecast layout! Learn more

10-Day Weather Forecast

Advertisements
Track Severe Weather on mobile